Time;durP1;ratioP1;P1;durP2;ratioP2;P2;SDS_P1;SDS_P2;PMS_P1;PMS_P2;Temp;Humidity;BMP_temperature;BMP_pressure;BME280_temperature;BME280_humidity;BME280_pressure;Samples;Min_cycle;Max_cycle;Signal;HPM_P1;HPM_P2
2022/08/21 00:01:26;;;;;;;19.07;15.33;;;20.10;99.90;;;;;;4994610;28;20570;-74
2022/08/21 00:03:52;;;;;;;14.77;13.03;;;20.10;99.90;;;;;;4995147;28;20609;-75
2022/08/21 00:06:19;;;;;;;14.30;12.80;;;20.00;99.90;;;;;;4994810;28;21037;-75
2022/08/21 00:08:45;;;;;;;13.60;11.33;;;20.00;99.90;;;;;;4994863;28;20574;-74
2022/08/21 00:11:11;;;;;;;13.37;11.13;;;20.00;99.90;;;;;;4977181;28;20669;-74
2022/08/21 00:13:37;;;;;;;9.10;8.20;;;19.90;99.90;;;;;;4977203;28;20585;-74
2022/08/21 00:16:03;;;;;;;10.60;8.63;;;19.90;99.90;;;;;;4994504;28;20621;-74
2022/08/21 00:18:29;;;;;;;13.70;7.63;;;19.90;99.90;;;;;;4994699;28;20574;-74
2022/08/21 00:20:55;;;;;;;7.53;6.40;;;19.80;99.90;;;;;;4994112;28;20903;-74
2022/08/21 00:23:22;;;;;;;9.30;7.70;;;19.80;99.90;;;;;;4955913;28;20972;-75
2022/08/21 00:25:48;;;;;;;10.10;8.43;;;19.80;99.90;;;;;;4988542;28;20601;-74
2022/08/21 00:28:14;;;;;;;14.03;10.63;;;19.80;99.90;;;;;;4994650;28;20899;-74
2022/08/21 00:30:42;;;;;;;13.20;9.90;;;19.80;99.90;;;;;;4976881;28;20198;-75
2022/08/21 00:33:08;;;;;;;10.00;8.20;;;19.80;99.90;;;;;;4976726;28;20932;-75
2022/08/21 00:35:37;;;;;;;10.53;7.00;;;19.70;99.90;;;;;;4995814;28;20589;-75
2022/08/21 00:38:05;;;;;;;8.80;6.70;;;19.70;99.90;;;;;;4976857;28;20609;-75
2022/08/21 00:40:35;;;;;;;9.40;5.67;;;19.70;99.90;;;;;;4994280;28;20571;-74
2022/08/21 00:43:05;;;;;;;9.97;6.63;;;19.70;99.90;;;;;;4976356;28;20574;-74
2022/08/21 00:45:31;;;;;;;6.60;5.53;;;19.60;99.90;;;;;;4976741;28;20598;-75
2022/08/21 00:47:58;;;;;;;6.70;4.70;;;19.60;99.90;;;;;;4994063;28;20921;-75
2022/08/21 00:50:28;;;;;;;7.50;5.10;;;19.60;99.90;;;;;;4976761;28;20566;-75
2022/08/21 00:52:55;;;;;;;6.20;4.20;;;19.60;99.90;;;;;;4976347;28;20621;-75
2022/08/21 00:55:22;;;;;;;4.50;3.27;;;19.60;99.90;;;;;;4976454;28;20844;-75
2022/08/21 00:57:53;;;;;;;5.00;3.73;;;19.60;99.90;;;;;;4976707;28;20609;-75
2022/08/21 01:00:24;;;;;;;4.60;3.30;;;19.60;99.90;;;;;;4994123;28;20613;-75
2022/08/21 01:02:50;;;;;;;5.00;3.60;;;19.50;99.90;;;;;;4976242;28;20621;-74
2022/08/21 01:05:16;;;;;;;5.30;3.70;;;19.50;99.90;;;;;;4993769;28;20586;-75
2022/08/21 01:07:44;;;;;;;4.30;2.97;;;19.50;99.90;;;;;;4959720;28;20609;-74
2022/08/21 01:10:12;;;;;;;5.17;4.07;;;19.50;99.90;;;;;;4976513;28;20582;-75
2022/08/21 01:12:39;;;;;;;6.43;3.83;;;19.50;99.90;;;;;;4993738;28;20574;-74
2022/08/21 01:15:07;;;;;;;6.60;3.90;;;19.50;99.90;;;;;;4959900;28;20622;-74
2022/08/21 01:17:33;;;;;;;5.30;3.57;;;19.50;99.90;;;;;;4993590;28;20984;-74
2022/08/21 01:20:04;;;;;;;8.30;4.27;;;19.40;99.90;;;;;;4993572;28;20558;-75
2022/08/21 01:22:30;;;;;;;6.47;4.47;;;19.40;99.90;;;;;;4993141;28;20571;-74
2022/08/21 01:24:56;;;;;;;9.40;3.80;;;19.40;99.90;;;;;;4976003;28;20586;-74
2022/08/21 01:27:22;;;;;;;5.03;3.30;;;19.30;99.90;;;;;;4993483;28;20579;-74
2022/08/21 01:29:58;;;;;;;7.07;3.83;;;19.30;99.90;;;;;;4993281;28;20198;-74
2022/08/21 01:32:25;;;;;;;6.63;4.07;;;19.30;99.90;;;;;;4973829;28;20181;-74
2022/08/21 01:34:51;;;;;;;4.30;3.40;;;19.40;99.90;;;;;;4993240;28;20625;-74
2022/08/21 01:37:19;;;;;;;5.73;4.27;;;19.30;99.90;;;;;;4992894;28;20617;-74
2022/08/21 01:39:46;;;;;;;7.20;3.80;;;19.30;99.90;;;;;;4975932;28;20566;-74
2022/08/21 01:42:12;;;;;;;5.87;3.83;;;19.30;99.90;;;;;;4992788;28;20578;-74
2022/08/21 01:44:38;;;;;;;12.60;4.57;;;19.20;99.90;;;;;;4992951;28;20690;-74
2022/08/21 01:47:07;;;;;;;6.40;4.00;;;19.20;99.90;;;;;;4993411;28;20630;-74
2022/08/21 01:49:34;;;;;;;5.03;3.83;;;19.20;99.90;;;;;;4992932;28;20183;-74
2022/08/21 01:52:00;;;;;;;5.87;4.10;;;19.20;99.90;;;;;;4992836;28;21116;-74
2022/08/21 01:54:26;;;;;;;10.03;4.73;;;19.10;99.90;;;;;;4959487;28;20696;-74
2022/08/21 01:56:54;;;;;;;5.13;4.30;;;19.10;99.90;;;;;;4992840;28;20625;-74
2022/08/21 01:59:21;;;;;;;7.93;4.57;;;19.10;99.90;;;;;;4975545;28;20650;-74
2022/08/21 02:01:48;;;;;;;7.80;5.00;;;19.10;99.90;;;;;;4975126;28;20581;-74
2022/08/21 02:04:15;;;;;;;6.83;4.60;;;19.10;99.90;;;;;;4975341;28;20989;-75
2022/08/21 02:06:41;;;;;;;6.27;4.20;;;19.00;99.90;;;;;;4975499;28;20723;-75
2022/08/21 02:09:09;;;;;;;6.33;4.90;;;19.00;99.90;;;;;;4975248;28;20602;-75
2022/08/21 02:11:36;;;;;;;6.13;4.50;;;19.00;99.90;;;;;;4992109;28;21236;-74
2022/08/21 02:14:02;;;;;;;6.70;4.30;;;18.90;99.90;;;;;;4975068;28;20626;-75
2022/08/21 02:16:28;;;;;;;8.13;5.50;;;18.90;99.90;;;;;;4974816;28;21195;-75
2022/08/21 02:18:54;;;;;;;8.17;3.80;;;18.90;99.90;;;;;;4992405;28;20566;-75
2022/08/21 02:21:19;;;;;;;6.03;4.47;;;18.90;99.90;;;;;;4991268;28;20562;-75
2022/08/21 02:23:45;;;;;;;5.50;4.23;;;18.80;99.90;;;;;;4992896;28;20708;-74
2022/08/21 02:26:12;;;;;;;5.60;3.93;;;18.80;99.90;;;;;;4958783;28;20187;-75
2022/08/21 02:28:38;;;;;;;4.50;4.10;;;18.80;99.90;;;;;;4992521;28;20198;-75
2022/08/21 02:31:06;;;;;;;5.90;4.00;;;18.80;99.90;;;;;;4992151;28;20559;-74
2022/08/21 02:33:33;;;;;;;6.80;4.07;;;18.70;99.90;;;;;;4992213;28;20943;-74
2022/08/21 02:35:58;;;;;;;5.60;4.03;;;18.70;99.90;;;;;;4974660;28;20601;-74
2022/08/21 02:38:29;;;;;;;6.60;4.00;;;18.70;99.90;;;;;;4991088;28;20947;-74
2022/08/21 02:40:56;;;;;;;6.10;3.70;;;18.70;99.90;;;;;;4958577;28;20567;-74
2022/08/21 02:43:24;;;;;;;7.60;4.10;;;18.60;99.90;;;;;;4991415;28;20930;-74
2022/08/21 02:45:50;;;;;;;4.43;3.87;;;18.60;99.90;;;;;;4991878;28;20598;-74
2022/08/21 02:48:20;;;;;;;5.77;3.97;;;18.60;99.90;;;;;;4992019;28;20574;-74
2022/08/21 02:51:08;;;;;;;5.93;4.30;;;18.60;99.90;;;;;;4992012;28;20581;-74
2022/08/21 02:53:34;;;;;;;4.33;3.83;;;18.60;99.90;;;;;;4991829;28;20983;-74
2022/08/21 02:56:04;;;;;;;5.80;3.43;;;18.60;99.90;;;;;;4991781;28;20968;-74
2022/08/21 02:58:34;;;;;;;4.83;4.37;;;18.60;99.90;;;;;;4991715;28;20577;-74
2022/08/21 03:01:01;;;;;;;6.10;3.80;;;18.60;99.90;;;;;;4975556;28;20710;-74
2022/08/21 03:03:28;;;;;;;5.60;4.00;;;18.60;99.90;;;;;;4991511;28;20856;-74
2022/08/21 03:05:55;;;;;;;6.43;3.60;;;18.60;99.90;;;;;;4991941;28;21145;-75
2022/08/21 03:08:22;;;;;;;6.50;4.00;;;18.60;99.90;;;;;;4974703;28;20943;-74
2022/08/21 03:10:50;;;;;;;6.53;3.87;;;18.60;99.90;;;;;;4958398;28;20612;-74
2022/08/21 03:13:17;;;;;;;6.90;3.93;;;18.60;99.90;;;;;;4991640;28;20570;-74
2022/08/21 03:15:43;;;;;;;5.47;3.90;;;18.60;99.90;;;;;;4974244;28;20979;-74
2022/08/21 03:18:11;;;;;;;7.23;4.00;;;18.60;99.90;;;;;;4991729;28;21000;-74
2022/08/21 03:20:38;;;;;;;4.53;3.90;;;18.60;99.90;;;;;;4991690;28;20617;-74
2022/08/21 03:23:05;;;;;;;6.53;4.00;;;18.60;99.90;;;;;;4991500;28;20571;-74
2022/08/21 03:25:32;;;;;;;4.93;4.40;;;18.60;99.90;;;;;;4991755;28;20594;-74
2022/08/21 03:27:59;;;;;;;4.57;4.03;;;18.60;99.90;;;;;;5010171;23;20689;-75
2022/08/21 03:30:25;;;;;;;5.23;4.07;;;18.60;99.90;;;;;;5002335;28;20621;-74
2022/08/21 03:32:51;;;;;;;4.90;3.30;;;18.60;99.90;;;;;;5029281;28;21048;-75
2022/08/21 03:35:18;;;;;;;5.70;3.90;;;18.70;99.90;;;;;;5025391;28;20580;-75
2022/08/21 03:37:45;;;;;;;5.93;4.33;;;18.70;99.90;;;;;;5020418;28;20653;-75
2022/08/21 03:40:13;;;;;;;6.33;4.80;;;18.70;99.90;;;;;;5019600;28;20681;-75
2022/08/21 03:42:39;;;;;;;5.20;4.60;;;18.70;99.90;;;;;;5030697;28;20587;-75
2022/08/21 03:45:06;;;;;;;5.83;4.20;;;18.70;99.90;;;;;;5035460;28;21121;-75
2022/08/21 03:47:31;;;;;;;9.40;5.30;;;18.70;99.90;;;;;;5017528;28;20236;-74
2022/08/21 03:49:57;;;;;;;10.70;5.60;;;18.70;99.90;;;;;;5035552;28;20576;-74
2022/08/21 03:52:23;;;;;;;9.83;6.80;;;18.70;99.90;;;;;;5034538;28;20170;-74
2022/08/21 03:54:50;;;;;;;6.97;5.90;;;18.60;99.90;;;;;;5035220;28;20172;-74
2022/08/21 03:57:16;;;;;;;7.30;6.53;;;18.60;99.90;;;;;;5034746;28;20204;-74
2022/08/21 03:59:43;;;;;;;7.90;7.10;;;18.50;99.90;;;;;;5017130;28;20935;-74
2022/08/21 04:02:09;;;;;;;9.03;6.93;;;18.50;99.90;;;;;;5034420;28;20582;-74
2022/08/21 04:04:36;;;;;;;8.10;7.30;;;18.50;99.90;;;;;;5034552;28;20571;-74
2022/08/21 04:07:02;;;;;;;7.10;6.27;;;18.40;99.90;;;;;;5034347;28;20634;-74
2022/08/21 04:09:29;;;;;;;9.53;7.33;;;18.40;99.90;;;;;;5034470;28;20911;-75
2022/08/21 04:11:57;;;;;;;10.43;8.37;;;18.30;99.90;;;;;;5016073;28;21113;-74
2022/08/21 04:14:23;;;;;;;7.27;6.57;;;18.30;99.90;;;;;;5034339;28;20575;-74
2022/08/21 04:16:49;;;;;;;10.27;7.10;;;18.30;99.90;;;;;;5016415;28;20576;-74
2022/08/21 04:19:15;;;;;;;9.33;7.63;;;18.30;99.90;;;;;;5034342;28;20553;-74
2022/08/21 04:21:41;;;;;;;7.80;7.00;;;18.20;99.90;;;;;;5033671;28;20572;-74
2022/08/21 04:24:09;;;;;;;8.03;6.80;;;18.20;99.90;;;;;;5034199;28;20569;-74
2022/08/21 04:26:36;;;;;;;7.53;6.73;;;18.20;99.90;;;;;;5034020;28;20604;-74
2022/08/21 04:29:07;;;;;;;7.70;7.00;;;18.10;99.90;;;;;;5033855;28;21012;-74
2022/08/21 04:31:36;;;;;;;7.10;6.50;;;18.10;99.90;;;;;;5033676;28;21160;-74
2022/08/21 04:34:03;;;;;;;7.40;6.40;;;18.10;99.90;;;;;;5016320;28;20926;-74
2022/08/21 04:36:29;;;;;;;6.87;6.27;;;18.10;99.90;;;;;;5033958;28;20557;-74
2022/08/21 04:38:54;;;;;;;7.07;6.30;;;18.10;99.90;;;;;;5033851;28;20608;-74
2022/08/21 04:41:20;;;;;;;6.73;6.10;;;18.10;99.90;;;;;;5015822;28;20608;-75
2022/08/21 04:43:46;;;;;;;5.90;5.30;;;18.10;99.90;;;;;;5014953;28;20272;-74
2022/08/21 04:46:12;;;;;;;8.73;6.73;;;18.10;99.90;;;;;;5033704;28;20588;-74
2022/08/21 04:48:37;;;;;;;10.43;6.17;;;18.10;99.90;;;;;;5033553;28;20689;-75
2022/08/21 04:51:10;;;;;;;8.83;6.50;;;18.20;99.90;;;;;;5033494;28;20170;-74
2022/08/21 04:53:50;;;;;;;7.40;5.17;;;18.20;99.90;;;;;;5033605;28;20166;-74
2022/08/21 04:56:31;;;;;;;6.70;5.20;;;18.20;99.90;;;;;;5015695;28;21219;-74
2022/08/21 04:58:59;;;;;;;6.87;4.93;;;18.20;99.90;;;;;;5033561;28;21157;-75
2022/08/21 05:01:28;;;;;;;6.07;5.07;;;18.30;99.90;;;;;;5015381;28;20611;-75
2022/08/21 05:03:58;;;;;;;6.40;4.27;;;18.30;99.90;;;;;;5033256;28;20799;-75
2022/08/21 05:06:24;;;;;;;5.90;5.30;;;18.30;99.90;;;;;;5033333;28;20616;-75
2022/08/21 05:08:53;;;;;;;7.37;3.80;;;18.30;99.90;;;;;;5015484;28;20588;-74
2022/08/21 05:11:20;;;;;;;4.60;4.13;;;18.30;99.90;;;;;;5015240;28;20672;-74
2022/08/21 05:13:46;;;;;;;7.00;4.90;;;18.30;99.90;;;;;;5033144;28;20596;-74
2022/08/21 05:16:12;;;;;;;4.80;3.73;;;18.40;99.90;;;;;;5033169;28;20561;-74
2022/08/21 05:18:38;;;;;;;4.40;4.00;;;18.40;99.90;;;;;;4998976;28;20603;-75
2022/08/21 05:21:04;;;;;;;5.67;4.07;;;18.40;99.90;;;;;;5032865;28;20178;-75
2022/08/21 05:23:30;;;;;;;5.63;4.97;;;18.40;99.90;;;;;;5032833;28;20563;-75
2022/08/21 05:25:56;;;;;;;8.93;4.57;;;18.50;99.90;;;;;;5032927;28;20561;-74
2022/08/21 05:28:23;;;;;;;6.77;4.60;;;18.50;99.90;;;;;;5032651;28;20201;-74
2022/08/21 05:30:49;;;;;;;4.67;3.60;;;18.50;99.90;;;;;;5032833;28;20565;-75
2022/08/21 05:33:14;;;;;;;6.20;3.57;;;18.60;99.90;;;;;;5032400;28;20561;-75
2022/08/21 05:35:40;;;;;;;5.17;2.60;;;18.60;99.90;;;;;;5032908;28;20176;-75
2022/08/21 05:38:06;;;;;;;5.13;3.63;;;18.60;99.90;;;;;;5032887;28;20255;-75
2022/08/21 05:40:32;;;;;;;4.57;3.03;;;18.70;99.90;;;;;;5015278;28;20973;-74
2022/08/21 05:42:59;;;;;;;5.37;3.23;;;18.80;99.90;;;;;;5032302;28;20569;-74
2022/08/21 05:45:34;;;;;;;6.50;4.00;;;18.80;99.90;;;;;;5032563;28;20170;-74
2022/08/21 05:48:09;;;;;;;5.13;3.43;;;18.90;99.90;;;;;;5032400;28;20631;-74
2022/08/21 05:50:37;;;;;;;3.63;2.90;;;19.00;99.90;;;;;;5014956;28;20919;-74
2022/08/21 05:53:03;;;;;;;3.90;3.50;;;19.00;99.90;;;;;;5032093;28;20948;-74
2022/08/21 05:55:29;;;;;;;6.73;3.30;;;19.00;99.90;;;;;;5014669;28;21039;-74
2022/08/21 05:57:55;;;;;;;5.90;2.63;;;19.10;99.90;;;;;;5032238;28;20611;-74
2022/08/21 06:00:22;;;;;;;4.70;3.17;;;19.20;99.90;;;;;;5029148;28;20178;-74
2022/08/21 06:02:50;;;;;;;4.70;3.03;;;19.20;99.90;;;;;;5009143;28;20569;-74
2022/08/21 06:05:17;;;;;;;8.13;3.63;;;19.30;99.90;;;;;;5024983;28;20926;-74
2022/08/21 06:07:43;;;;;;;5.20;3.00;;;19.40;99.90;;;;;;5031995;28;20631;-74
2022/08/21 06:10:10;;;;;;;5.80;3.20;;;19.40;99.90;;;;;;5032143;28;20564;-75
2022/08/21 06:12:36;;;;;;;4.20;3.20;;;19.50;99.90;;;;;;5013896;28;20679;-75
2022/08/21 06:15:03;;;;;;;3.20;2.83;;;19.60;99.90;;;;;;5032119;28;20648;-75
2022/08/21 06:17:29;;;;;;;6.60;2.33;;;19.70;99.90;;;;;;5014447;28;20600;-74
2022/08/21 06:19:55;;;;;;;3.70;2.50;;;19.80;99.90;;;;;;5031948;28;20578;-75
2022/08/21 06:22:21;;;;;;;5.80;3.97;;;19.80;99.90;;;;;;5031836;28;20197;-74
2022/08/21 06:24:47;;;;;;;7.03;3.17;;;19.90;99.90;;;;;;5014254;28;20185;-74
2022/08/21 06:27:13;;;;;;;5.33;2.60;;;20.00;99.90;;;;;;5031642;28;20742;-74
2022/08/21 06:29:39;;;;;;;6.27;2.50;;;20.10;99.90;;;;;;5025434;28;20580;-75
2022/08/21 06:32:08;;;;;;;5.90;2.20;;;20.30;99.90;;;;;;4977072;28;20578;-74
2022/08/21 06:34:38;;;;;;;8.97;2.37;;;20.90;99.90;;;;;;4978207;28;20179;-75
2022/08/21 06:37:04;;;;;;;7.87;2.27;;;21.90;99.90;;;;;;5009177;28;20588;-75
2022/08/21 06:39:31;;;;;;;6.30;2.00;;;23.00;99.90;;;;;;5011461;28;20577;-75
2022/08/21 06:41:57;;;;;;;4.50;1.60;;;24.10;99.90;;;;;;4983345;28;20582;-74
2022/08/21 06:44:28;;;;;;;4.20;1.80;;;25.30;99.90;;;;;;4983450;28;20582;-74
2022/08/21 06:46:54;;;;;;;3.07;1.43;;;26.50;99.90;;;;;;5003418;28;20630;-75
2022/08/21 06:49:20;;;;;;;3.50;2.10;;;27.70;99.90;;;;;;5012109;28;20931;-75
2022/08/21 06:51:45;;;;;;;3.97;1.30;;;28.70;99.90;;;;;;5011376;28;20181;-75
2022/08/21 06:54:11;;;;;;;3.67;1.23;;;29.80;99.90;;;;;;5011709;28;20699;-75
2022/08/21 06:56:38;;;;;;;6.00;1.60;;;30.80;99.90;;;;;;5011375;28;20514;-75
2022/08/21 06:59:05;;;;;;;3.70;1.40;;;31.80;99.90;;;;;;5011441;28;20184;-75
2022/08/21 07:01:32;;;;;;;3.20;1.60;;;32.60;99.50;;;;;;5011216;28;20578;-75
2022/08/21 07:03:58;;;;;;;2.57;1.20;;;33.40;97.30;;;;;;4993819;28;20580;-75
2022/08/21 07:06:24;;;;;;;5.83;1.30;;;34.10;95.30;;;;;;5003857;28;20955;-75
2022/08/21 07:08:50;;;;;;;2.93;1.17;;;34.70;92.90;;;;;;5016515;28;20197;-75
2022/08/21 07:11:23;;;;;;;4.30;1.47;;;35.30;91.20;;;;;;5017357;28;20568;-76
2022/08/21 07:13:51;;;;;;;3.67;1.00;;;35.90;86.30;;;;;;5035310;28;20618;-75
2022/08/21 07:16:16;;;;;;;2.70;1.20;;;36.40;84.90;;;;;;5035101;28;20600;-74
2022/08/21 07:18:42;;;;;;;2.63;1.00;;;37.00;80.90;;;;;;5035303;28;21207;-74
2022/08/21 07:21:08;;;;;;;2.57;0.90;;;37.50;77.50;;;;;;5034398;28;20157;-74
2022/08/21 07:23:38;;;;;;;4.80;1.03;;;38.00;74.00;;;;;;5013019;28;20532;-74
2022/08/21 07:26:04;;;;;;;6.00;1.10;;;38.40;69.80;;;;;;5005772;28;20588;-74
2022/08/21 07:28:30;;;;;;;3.93;1.40;;;38.80;67.50;;;;;;5029786;28;20659;-74
2022/08/21 07:30:59;;;;;;;4.07;1.00;;;39.20;64.80;;;;;;4996284;28;20612;-74
2022/08/21 07:33:26;;;;;;;3.23;1.00;;;39.60;61.60;;;;;;5015061;28;20650;-74
2022/08/21 07:35:52;;;;;;;2.03;1.00;;;39.80;59.20;;;;;;5003160;28;20643;-74
2022/08/21 07:38:18;;;;;;;2.20;1.10;;;40.10;57.90;;;;;;5005440;28;20616;-74
2022/08/21 07:40:46;;;;;;;3.10;1.00;;;40.40;56.50;;;;;;5010538;28;20584;-74
2022/08/21 07:43:11;;;;;;;3.57;0.97;;;40.70;54.70;;;;;;5034473;28;20937;-74
2022/08/21 07:45:38;;;;;;;2.47;0.90;;;40.70;53.30;;;;;;5017295;28;20641;-75
2022/08/21 07:48:04;;;;;;;3.10;1.03;;;40.70;51.90;;;;;;5028656;28;20301;-74
2022/08/21 07:50:30;;;;;;;2.43;1.20;;;40.60;50.60;;;;;;5000668;28;20608;-74
2022/08/21 07:52:56;;;;;;;2.57;0.90;;;40.60;49.90;;;;;;5014388;28;20603;-74
2022/08/21 07:55:22;;;;;;;2.93;1.10;;;40.50;49.10;;;;;;5019625;28;20580;-74
2022/08/21 07:57:48;;;;;;;3.13;1.00;;;40.50;48.50;;;;;;5007991;28;20684;-74
2022/08/21 08:00:19;;;;;;;3.30;1.00;;;40.60;47.90;;;;;;4993114;28;20591;-74
2022/08/21 08:02:49;;;;;;;2.20;0.93;;;40.60;46.90;;;;;;5001635;28;20580;-74
2022/08/21 08:05:15;;;;;;;2.87;1.17;;;40.70;46.90;;;;;;5014743;28;20566;-75
2022/08/21 08:07:41;;;;;;;3.37;0.97;;;40.90;46.50;;;;;;5014511;28;20605;-75
2022/08/21 08:10:08;;;;;;;2.00;0.87;;;41.00;46.00;;;;;;5014799;28;20607;-74
2022/08/21 08:12:38;;;;;;;2.57;0.80;;;41.20;45.50;;;;;;5014509;28;20632;-75
2022/08/21 08:15:07;;;;;;;2.73;0.97;;;41.40;45.00;;;;;;5015597;28;20972;-74
2022/08/21 08:17:32;;;;;;;4.20;1.00;;;41.50;43.80;;;;;;5009682;28;20740;-74
2022/08/21 08:20:02;;;;;;;2.50;0.90;;;41.50;43.20;;;;;;5014093;28;20609;-75
2022/08/21 08:22:28;;;;;;;4.13;0.97;;;41.70;42.90;;;;;;5018775;28;20583;-74
2022/08/21 08:24:55;;;;;;;2.90;0.83;;;41.70;42.00;;;;;;5014894;28;20598;-74
2022/08/21 08:27:21;;;;;;;3.70;1.00;;;41.80;41.80;;;;;;5014896;28;21094;-74
2022/08/21 08:29:47;;;;;;;3.97;1.03;;;42.00;41.40;;;;;;5015324;28;20605;-75
2022/08/21 08:32:14;;;;;;;2.93;0.90;;;42.10;41.00;;;;;;5015954;28;20820;-75
2022/08/21 08:34:39;;;;;;;3.40;0.80;;;42.30;40.60;;;;;;5034370;28;20564;-74
2022/08/21 08:37:07;;;;;;;2.27;0.90;;;42.40;40.20;;;;;;5034055;28;20618;-75
2022/08/21 08:39:34;;;;;;;2.63;0.80;;;42.60;39.40;;;;;;5034068;28;20166;-74
2022/08/21 08:42:15;;;;;;;2.30;0.80;;;42.70;38.90;;;;;;5033668;28;21293;-74
2022/08/21 08:44:42;;;;;;;2.13;1.07;;;42.80;38.60;;;;;;5034099;28;20591;-74
2022/08/21 08:47:14;;;;;;;2.83;1.10;;;42.80;37.90;;;;;;5033833;28;20569;-75
2022/08/21 08:49:51;;;;;;;1.83;0.80;;;42.70;38.00;;;;;;5019336;28;20594;-75
2022/08/21 08:52:28;;;;;;;2.97;0.90;;;42.80;36.90;;;;;;5006667;28;20648;-73
2022/08/21 08:55:08;;;;;;;2.50;0.90;;;42.90;36.70;;;;;;5015253;28;20660;-74
2022/08/21 08:57:36;;;;;;;3.30;0.80;;;42.90;36.80;;;;;;5033565;28;20632;-73
2022/08/21 09:00:10;;;;;;;2.80;0.80;;;42.90;36.90;;;;;;5033367;28;21229;-73
2022/08/21 09:02:38;;;;;;;3.23;1.37;;;43.00;36.10;;;;;;5033214;28;20569;-73
2022/08/21 09:05:05;;;;;;;1.50;0.70;;;43.10;36.10;;;;;;5033316;28;20564;-73
2022/08/21 09:07:43;;;;;;;2.50;0.80;;;43.20;35.70;;;;;;5015486;28;21166;-73
2022/08/21 09:10:43;;;;;;;3.77;1.10;;;43.30;35.30;;;;;;5033205;28;21135;-71
2022/08/21 09:13:34;;;;;;;2.10;0.90;;;43.40;35.20;;;;;;5005318;28;21164;-71
2022/08/21 09:16:05;;;;;;;2.83;0.97;;;43.40;34.40;;;;;;5008423;28;20592;-71
2022/08/21 09:19:03;;;;;;;3.40;1.00;;;43.40;34.60;;;;;;5008160;28;20645;-72
2022/08/21 09:21:49;;;;;;;4.40;1.73;;;43.30;34.70;;;;;;5008462;28;21480;-72
2022/08/21 09:24:34;;;;;;;4.77;1.50;;;42.90;31.40;;;;;;5007465;28;20585;-72
2022/08/21 09:27:02;;;;;;;3.90;1.10;;;42.70;33.30;;;;;;5011720;28;20661;-71
2022/08/21 09:29:32;;;;;;;4.33;1.30;;;42.50;33.60;;;;;;5013065;28;20565;-72
2022/08/21 09:31:58;;;;;;;2.43;0.80;;;42.20;32.70;;;;;;5011548;28;20635;-73
2022/08/21 09:34:27;;;;;;;3.07;1.00;;;42.10;33.10;;;;;;5012980;28;20584;-75
2022/08/21 09:36:53;;;;;;;3.50;1.23;;;41.90;32.60;;;;;;5012106;28;20252;-75
2022/08/21 09:39:30;;;;;;;3.77;1.37;;;41.80;32.60;;;;;;5008210;28;21025;-73
2022/08/21 09:42:02;;;;;;;3.47;1.00;;;41.80;33.10;;;;;;5012592;28;20569;-74
2022/08/21 09:44:33;;;;;;;3.00;1.00;;;41.70;32.90;;;;;;5003012;28;20590;-74
2022/08/21 09:46:59;;;;;;;5.30;1.70;;;41.60;32.90;;;;;;5010364;28;20598;-74
2022/08/21 09:49:36;;;;;;;4.67;1.00;;;41.50;33.10;;;;;;5012691;28;20608;-74
2022/08/21 09:52:12;;;;;;;4.00;0.90;;;41.50;32.40;;;;;;5015088;28;20171;-75
2022/08/21 09:54:40;;;;;;;3.50;0.73;;;41.40;32.70;;;;;;5011810;28;20978;-76
2022/08/21 09:59:54;;;;;;;2.13;0.90;;;41.60;33.20;;;;;;5023259;28;20700;-76
2022/08/21 10:02:32;;;;;;;3.67;1.00;;;41.90;33.30;;;;;;5023588;28;20572;-75
2022/08/21 10:05:15;;;;;;;3.30;1.00;;;42.20;33.00;;;;;;5013820;28;21016;-75
2022/08/21 10:07:41;;;;;;;1.90;0.77;;;42.30;32.60;;;;;;5013251;28;21003;-75
2022/08/21 10:10:23;;;;;;;2.40;1.10;;;42.40;32.80;;;;;;5016741;28;20588;-75
2022/08/21 10:13:20;;;;;;;3.10;0.83;;;42.00;32.30;;;;;;5034333;28;20177;-75
2022/08/21 10:16:17;;;;;;;4.37;1.20;;;41.80;32.60;;;;;;5032549;28;20913;-75
2022/08/21 10:18:48;;;;;;;3.23;1.10;;;41.70;32.50;;;;;;5033369;28;20603;-75
2022/08/21 10:21:43;;;;;;;5.43;1.07;;;41.60;32.40;;;;;;5031758;28;20560;-75
2022/08/21 10:24:14;;;;;;;2.77;1.20;;;41.60;32.30;;;;;;4986468;28;20928;-74
2022/08/21 10:30:58;;;;;;;2.83;1.00;;;41.80;33.00;;;;;;5017796;28;20588;-77
2022/08/21 10:33:32;;;;;;;2.50;0.93;;;42.20;33.30;;;;;;5024941;28;21083;-75
2022/08/21 10:36:11;;;;;;;1.97;0.70;;;42.30;32.10;;;;;;5035226;28;20607;-74
2022/08/21 10:38:50;;;;;;;4.00;1.43;;;42.30;31.40;;;;;;5013841;28;20631;-75
2022/08/21 10:41:47;;;;;;;2.90;1.20;;;42.30;31.70;;;;;;5014626;28;21084;-76
2022/08/21 10:44:49;;;;;;;3.30;1.17;;;42.30;31.50;;;;;;5004824;28;20564;-75
2022/08/21 10:47:32;;;;;;;4.00;1.30;;;42.20;31.10;;;;;;4986665;28;20604;-74
2022/08/21 10:50:12;;;;;;;4.20;1.10;;;42.00;30.90;;;;;;5011848;28;20561;-74
2022/08/21 10:53:00;;;;;;;2.17;0.90;;;41.70;31.30;;;;;;5011628;28;20569;-74
2022/08/21 10:55:42;;;;;;;2.43;0.80;;;41.40;31.10;;;;;;4994145;28;20570;-74
2022/08/21 10:58:32;;;;;;;2.70;0.90;;;41.20;30.80;;;;;;4993778;28;20632;-74
2022/08/21 11:01:12;;;;;;;2.80;0.80;;;40.90;31.00;;;;;;4982530;28;21117;-74
2022/08/21 11:03:45;;;;;;;2.20;0.80;;;40.70;31.50;;;;;;5011765;28;20660;-74
2022/08/21 11:06:31;;;;;;;2.53;0.90;;;40.40;31.60;;;;;;5001687;28;21110;-74
2022/08/21 11:09:03;;;;;;;3.30;1.10;;;40.30;31.50;;;;;;5021347;28;21019;-74
2022/08/21 11:11:36;;;;;;;3.03;0.93;;;40.20;31.70;;;;;;5031384;28;20584;-74
2022/08/21 11:14:13;;;;;;;2.70;0.93;;;40.10;32.00;;;;;;5034831;28;20572;-75
2022/08/21 11:16:45;;;;;;;2.10;0.73;;;40.00;31.80;;;;;;5013461;28;20639;-75
2022/08/21 11:19:20;;;;;;;2.97;1.00;;;40.10;31.60;;;;;;5030906;28;20619;-75
2022/08/21 11:21:56;;;;;;;3.50;1.10;;;39.90;31.40;;;;;;5006913;28;20611;-75
2022/08/21 11:25:02;;;;;;;2.63;1.00;;;39.70;31.40;;;;;;5011425;28;21305;-75
2022/08/21 11:27:45;;;;;;;2.20;0.87;;;39.60;31.60;;;;;;5001663;28;20980;-74
2022/08/21 11:30:12;;;;;;;2.53;0.80;;;39.60;31.70;;;;;;5030974;28;20615;-75
2022/08/21 11:32:56;;;;;;;3.00;1.90;;;39.50;31.70;;;;;;5030976;28;20703;-75
2022/08/21 11:35:42;;;;;;;2.10;1.10;;;39.40;31.50;;;;;;5031121;28;20663;-75
2022/08/21 11:38:40;;;;;;;1.90;0.90;;;39.30;31.50;;;;;;5030719;28;20678;-75
2022/08/21 11:41:24;;;;;;;2.20;0.80;;;39.20;32.00;;;;;;5030998;28;20575;-75
2022/08/21 11:44:14;;;;;;;3.97;1.00;;;39.20;31.60;;;;;;5031013;28;20552;-75
2022/08/21 11:46:48;;;;;;;2.77;0.83;;;39.20;31.70;;;;;;5017515;28;20615;-75
2022/08/21 11:49:45;;;;;;;1.70;0.77;;;39.20;31.80;;;;;;5010028;28;20672;-74
2022/08/21 11:52:18;;;;;;;3.30;0.83;;;39.20;31.50;;;;;;5006629;28;21124;-75
2022/08/21 11:54:51;;;;;;;2.40;0.80;;;39.00;31.20;;;;;;5013216;28;20960;-74
2022/08/21 11:57:22;;;;;;;2.37;0.80;;;38.70;30.80;;;;;;5005906;28;20634;-76
2022/08/21 11:59:55;;;;;;;3.20;0.80;;;38.40;31.00;;;;;;5012158;28;20580;-75
2022/08/21 12:02:27;;;;;;;2.80;0.80;;;38.10;31.90;;;;;;5006627;28;20581;-76
2022/08/21 12:05:01;;;;;;;2.93;0.70;;;37.80;31.60;;;;;;5014247;28;20578;-76
2022/08/21 12:07:42;;;;;;;2.93;1.00;;;37.70;32.20;;;;;;5014619;28;20659;-75
2022/08/21 12:10:17;;;;;;;2.13;1.00;;;37.60;32.40;;;;;;5014329;28;21134;-75
2022/08/21 12:12:44;;;;;;;1.90;0.60;;;37.60;32.20;;;;;;5011833;28;20682;-75
2022/08/21 12:15:29;;;;;;;2.77;0.90;;;37.50;32.20;;;;;;5014799;28;20580;-75
2022/08/21 12:18:04;;;;;;;2.90;1.10;;;37.40;32.50;;;;;;5014223;28;20664;-75
2022/08/21 12:20:44;;;;;;;1.50;0.70;;;37.20;32.50;;;;;;5013319;28;20587;-75
2022/08/21 12:23:09;;;;;;;2.17;0.70;;;37.00;32.30;;;;;;5010450;28;20616;-75
2022/08/21 12:25:42;;;;;;;2.87;0.90;;;36.80;32.70;;;;;;5019044;28;20581;-75
2022/08/21 12:28:21;;;;;;;3.60;0.90;;;36.70;32.60;;;;;;5033646;28;20263;-75
2022/08/21 12:30:48;;;;;;;2.73;0.67;;;36.50;32.50;;;;;;5023680;28;20594;-75
2022/08/21 12:33:29;;;;;;;2.27;0.73;;;36.40;32.70;;;;;;5012488;28;21146;-75
2022/08/21 12:36:06;;;;;;;2.60;0.80;;;36.20;32.70;;;;;;4996319;28;20666;-74
2022/08/21 12:38:47;;;;;;;2.53;0.80;;;35.90;32.70;;;;;;5013378;28;20632;-75
2022/08/21 12:41:20;;;;;;;4.77;0.97;;;35.70;32.90;;;;;;5010455;28;20576;-75
2022/08/21 12:43:52;;;;;;;2.77;0.97;;;35.50;33.20;;;;;;4991237;28;20615;-75
2022/08/21 12:46:27;;;;;;;5.03;0.80;;;35.30;33.40;;;;;;5009581;28;20607;-75
2022/08/21 12:49:08;;;;;;;3.97;1.00;;;35.10;33.40;;;;;;4976185;28;20707;-75
2022/08/21 12:51:57;;;;;;;2.57;0.90;;;34.90;33.40;;;;;;5006647;28;20956;-75
2022/08/21 12:54:29;;;;;;;2.43;1.23;;;34.50;33.40;;;;;;5011068;28;20627;-75
2022/08/21 12:57:05;;;;;;;3.07;1.10;;;34.20;33.30;;;;;;5007494;28;20619;-75
2022/08/21 12:59:36;;;;;;;3.20;0.90;;;33.90;33.50;;;;;;5013591;28;20618;-76
2022/08/21 13:02:12;;;;;;;3.63;0.80;;;33.50;33.60;;;;;;4996911;28;20617;-76
2022/08/21 13:04:41;;;;;;;2.40;0.77;;;33.20;33.80;;;;;;5012788;28;20577;-76
2022/08/21 13:07:13;;;;;;;4.00;1.40;;;33.00;34.10;;;;;;5007730;28;20601;-76
2022/08/21 13:09:50;;;;;;;4.83;2.00;;;32.70;34.40;;;;;;5007265;28;20589;-76